createdAt,value
2018-09-21T00:01:23.993Z,10.27
2018-09-21T00:03:57.914Z,10.30
2018-09-21T00:06:26.588Z,14.67
2018-09-21T00:08:55.077Z,12.83
2018-09-21T00:11:23.735Z,10.70
2018-09-21T00:13:52.219Z,10.50
2018-09-21T00:16:21.622Z,9.37
2018-09-21T00:18:50.191Z,10.73
2018-09-21T00:21:18.630Z,9.97
2018-09-21T00:23:47.155Z,9.87
2018-09-21T00:26:15.603Z,10.80
2018-09-21T00:28:44.030Z,9.93
2018-09-21T00:31:12.607Z,9.63
2018-09-21T00:33:41.156Z,10.20
2018-09-21T00:36:09.664Z,9.00
2018-09-21T00:38:38.181Z,9.33
2018-09-21T00:41:06.618Z,10.47
2018-09-21T00:43:35.065Z,9.70
2018-09-21T00:46:03.508Z,9.30
2018-09-21T00:48:31.991Z,9.23
2018-09-21T00:51:00.435Z,8.03
2018-09-21T00:53:28.965Z,11.63
2018-09-21T00:55:57.439Z,7.93
2018-09-21T00:58:25.898Z,9.70
2018-09-21T01:00:54.335Z,13.20
2018-09-21T01:03:23.018Z,8.03
2018-09-21T01:05:51.454Z,9.63
2018-09-21T01:08:19.982Z,8.97
2018-09-21T01:10:48.394Z,8.23
2018-09-21T01:13:16.906Z,9.20
2018-09-21T01:15:45.331Z,8.47
2018-09-21T01:18:13.768Z,8.73
2018-09-21T01:20:42.243Z,9.23
2018-09-21T01:23:10.831Z,8.97
2018-09-21T01:25:39.295Z,10.10
2018-09-21T01:28:07.947Z,10.30
2018-09-21T01:30:36.433Z,10.70
2018-09-21T01:33:04.925Z,7.67
2018-09-21T01:35:33.368Z,8.50
2018-09-21T01:38:01.834Z,8.47
2018-09-21T01:40:30.299Z,8.37
2018-09-21T01:42:58.795Z,8.27
2018-09-21T01:45:27.364Z,8.60
2018-09-21T01:47:55.807Z,8.17
2018-09-21T01:50:24.374Z,7.67
2018-09-21T01:52:53.128Z,7.40
2018-09-21T01:55:21.559Z,10.57
2018-09-21T01:57:50.230Z,9.97
2018-09-21T02:00:18.779Z,8.00
2018-09-21T02:02:47.370Z,8.00
2018-09-21T02:05:15.785Z,7.07
2018-09-21T02:07:44.298Z,7.90
2018-09-21T02:10:12.720Z,8.63
2018-09-21T02:12:41.174Z,7.90
2018-09-21T02:15:09.587Z,7.00
2018-09-21T02:17:38.055Z,7.87
2018-09-21T02:20:06.692Z,8.20
2018-09-21T02:22:35.239Z,7.63
2018-09-21T02:25:03.723Z,7.43
2018-09-21T02:27:32.131Z,8.17
2018-09-21T02:30:00.561Z,8.13
2018-09-21T02:32:28.965Z,8.27
2018-09-21T02:34:57.394Z,7.70
2018-09-21T02:37:25.840Z,7.63
2018-09-21T02:39:54.274Z,11.67
2018-09-21T02:42:22.715Z,7.77
2018-09-21T02:44:51.175Z,7.37
2018-09-21T02:47:19.597Z,7.10
2018-09-21T02:49:48.128Z,7.83
2018-09-21T02:52:16.531Z,7.43
2018-09-21T02:54:44.991Z,8.47
2018-09-21T02:57:13.431Z,8.20
2018-09-21T02:59:41.935Z,8.10
2018-09-21T03:02:10.368Z,7.43
2018-09-21T03:04:44.439Z,7.63
2018-09-21T03:07:12.863Z,9.07
2018-09-21T03:09:41.360Z,7.27
2018-09-21T03:12:10.059Z,8.43
2018-09-21T03:14:38.951Z,10.40
2018-09-21T03:17:07.627Z,10.10
2018-09-21T03:19:36.070Z,9.27
2018-09-21T03:22:04.494Z,8.40
2018-09-21T03:24:32.937Z,7.87
2018-09-21T03:27:01.608Z,8.07
2018-09-21T03:29:30.238Z,7.30
2018-09-21T03:31:58.825Z,8.37
2018-09-21T03:34:27.341Z,8.00
2018-09-21T03:36:55.888Z,7.63
2018-09-21T03:39:24.404Z,9.57
2018-09-21T03:41:52.939Z,7.23
2018-09-21T03:44:21.531Z,9.30
2018-09-21T03:46:49.971Z,7.67
2018-09-21T03:49:18.408Z,10.33
2018-09-21T03:51:46.869Z,8.23
2018-09-21T03:54:15.291Z,10.23
2018-09-21T03:56:43.730Z,9.17
2018-09-21T03:59:12.180Z,8.00
2018-09-21T04:01:40.746Z,9.97
2018-09-21T04:04:09.157Z,7.87
2018-09-21T04:06:37.632Z,7.27
2018-09-21T04:09:08.087Z,8.77
2018-09-21T04:11:36.543Z,8.30
2018-09-21T04:14:04.929Z,7.30
2018-09-21T04:16:33.460Z,7.47
2018-09-21T04:19:01.875Z,7.23
2018-09-21T04:21:30.328Z,8.23
2018-09-21T04:23:58.736Z,8.13
2018-09-21T04:26:27.174Z,8.40
2018-09-21T04:28:55.928Z,8.17
2018-09-21T04:31:24.372Z,9.67
2018-09-21T04:33:52.830Z,8.03
2018-09-21T04:36:21.280Z,7.93
2018-09-21T04:38:49.727Z,7.93
2018-09-21T04:41:18.255Z,10.57
2018-09-21T04:43:46.812Z,7.97
2018-09-21T04:46:15.373Z,7.97
2018-09-21T04:48:43.853Z,7.90
2018-09-21T04:51:12.449Z,10.67
2018-09-21T04:53:40.946Z,7.60
2018-09-21T04:56:09.746Z,8.13
2018-09-21T04:58:38.185Z,10.30
2018-09-21T05:01:06.752Z,11.70
2018-09-21T05:03:35.241Z,7.47
2018-09-21T05:06:03.715Z,7.03
2018-09-21T05:08:32.147Z,6.77
2018-09-21T05:11:00.606Z,17.07
2018-09-21T05:13:29.055Z,22.00
2018-09-21T05:15:57.511Z,23.50
2018-09-21T05:18:26.045Z,23.30
2018-09-21T05:20:54.751Z,14.27
2018-09-21T05:23:23.229Z,11.20
2018-09-21T05:25:51.825Z,13.17
2018-09-21T05:28:20.334Z,12.43
2018-09-21T05:30:49.279Z,8.97
2018-09-21T05:33:17.683Z,9.10
2018-09-21T05:35:46.210Z,6.30
2018-09-21T05:38:14.610Z,6.57
2018-09-21T05:40:43.074Z,9.17
2018-09-21T05:43:11.541Z,6.57
2018-09-21T05:45:39.997Z,11.20
2018-09-21T05:48:08.509Z,10.50
2018-09-21T05:50:36.976Z,10.70
2018-09-21T05:53:05.599Z,12.10
2018-09-21T05:55:34.050Z,162.03
2018-09-21T05:58:02.703Z,579.30
2018-09-21T06:00:31.144Z,261.67
2018-09-21T06:02:59.682Z,359.97
2018-09-21T06:05:28.367Z,337.23
2018-09-21T06:07:56.970Z,255.63
2018-09-21T06:10:25.598Z,166.50
2018-09-21T06:12:54.082Z,533.07
2018-09-21T06:15:22.548Z,837.07
2018-09-21T06:17:51.058Z,1429.17
2018-09-21T06:20:19.644Z,455.67
2018-09-21T06:22:48.250Z,930.00
2018-09-21T06:25:17.306Z,606.53
2018-09-21T06:27:45.868Z,45.50
2018-09-21T06:30:14.315Z,25.90
2018-09-21T06:32:49.095Z,18.17
2018-09-21T06:35:17.541Z,19.80
2018-09-21T06:37:46.180Z,15.10
2018-09-21T06:40:14.700Z,9.03
2018-09-21T06:42:43.142Z,18.70
2018-09-21T06:45:11.563Z,11.13
2018-09-21T06:47:40.113Z,10.93
2018-09-21T06:50:08.558Z,17.17
2018-09-21T06:52:37.339Z,7.27
2018-09-21T06:55:06.104Z,9.63
2018-09-21T06:57:34.599Z,8.63
2018-09-21T07:00:03.042Z,16.67
2018-09-21T07:02:31.502Z,10.27
2018-09-21T07:05:05.214Z,16.53
2018-09-21T07:07:33.674Z,35.97
2018-09-21T07:10:02.193Z,9.83
2018-09-21T07:12:30.796Z,9.27
2018-09-21T07:14:59.258Z,10.43
2018-09-21T07:17:27.716Z,7.77
2018-09-21T07:19:56.180Z,33.07
2018-09-21T07:22:24.656Z,7.93
2018-09-21T07:24:53.109Z,12.23
2018-09-21T07:27:21.627Z,5.53
2018-09-21T07:29:50.079Z,6.33
2018-09-21T07:32:18.584Z,6.83
2018-09-21T07:34:47.099Z,8.50
2018-09-21T07:37:15.541Z,9.77
2018-09-21T07:39:43.975Z,6.60
2018-09-21T07:42:12.539Z,9.80
2018-09-21T07:44:41.146Z,10.30
2018-09-21T07:47:09.744Z,4.60
2018-09-21T07:49:38.256Z,5.40
2018-09-21T07:52:06.714Z,5.80
2018-09-21T07:54:35.316Z,5.07
2018-09-21T07:57:03.865Z,8.58
2018-09-21T07:59:32.940Z,6.05
2018-09-21T08:02:02.197Z,4.33
2018-09-21T08:04:30.701Z,5.23
2018-09-21T08:06:59.229Z,7.40
2018-09-21T08:09:27.691Z,5.37
2018-09-21T08:11:56.837Z,5.08
2018-09-21T08:14:25.867Z,4.65
2018-09-21T08:16:54.858Z,4.28
2018-09-21T08:19:23.330Z,6.23
2018-09-21T08:21:52.438Z,3.67
2018-09-21T08:24:20.953Z,6.43
2018-09-21T08:26:49.368Z,6.00
2018-09-21T08:29:17.962Z,3.30
2018-09-21T08:31:46.424Z,5.20
2018-09-21T08:34:14.853Z,3.90
2018-09-21T08:36:43.822Z,6.37
2018-09-21T08:39:12.640Z,7.57
2018-09-21T08:41:41.843Z,4.37
2018-09-21T08:44:11.026Z,3.85
2018-09-21T08:46:40.165Z,4.50
2018-09-21T08:49:09.263Z,6.65
2018-09-21T08:51:38.254Z,5.12
2018-09-21T08:54:07.335Z,3.70
2018-09-21T08:56:36.329Z,3.65
2018-09-21T08:59:05.319Z,3.98
2018-09-21T09:01:34.336Z,3.52
2018-09-21T09:04:03.327Z,4.50
2018-09-21T09:06:32.432Z,6.25
2018-09-21T09:09:01.539Z,5.92
2018-09-21T09:11:30.699Z,4.90
2018-09-21T09:13:59.717Z,5.45
2018-09-21T09:16:28.713Z,4.33
2018-09-21T09:18:57.715Z,4.85
2018-09-21T09:21:26.712Z,8.78
2018-09-21T09:23:55.826Z,6.20
2018-09-21T09:26:24.827Z,5.22
2018-09-21T09:28:54.010Z,4.90
2018-09-21T09:31:23.003Z,6.58
2018-09-21T09:33:51.496Z,5.23
2018-09-21T09:36:20.883Z,4.83
2018-09-21T09:38:49.912Z,4.28
2018-09-21T09:41:18.894Z,4.78
2018-09-21T09:43:47.920Z,5.17
2018-09-21T09:46:17.051Z,6.42
2018-09-21T09:48:46.141Z,5.97
2018-09-21T09:51:15.272Z,6.60
2018-09-21T09:53:44.390Z,4.55
2018-09-21T09:56:13.388Z,4.92
2018-09-21T09:58:42.379Z,6.42
2018-09-21T10:01:11.390Z,6.90
2018-09-21T10:03:40.390Z,7.60
2018-09-21T10:06:09.687Z,5.47
2018-09-21T10:08:38.745Z,6.05
2018-09-21T10:11:07.764Z,6.12
2018-09-21T10:13:36.801Z,4.85
2018-09-21T10:16:05.823Z,6.55
2018-09-21T10:18:35.027Z,4.25
2018-09-21T10:21:04.064Z,5.60
2018-09-21T10:23:33.131Z,5.00
2018-09-21T10:26:02.205Z,6.20
2018-09-21T10:28:31.503Z,4.22
2018-09-21T10:31:00.511Z,4.83
2018-09-21T10:33:29.645Z,3.45
2018-09-21T10:35:58.926Z,3.58
2018-09-21T10:38:27.902Z,3.95
2018-09-21T10:41:03.549Z,4.08
2018-09-21T10:43:32.483Z,4.65
2018-09-21T10:46:01.551Z,4.78
2018-09-21T10:48:30.709Z,3.85
2018-09-21T10:51:00.470Z,5.78
2018-09-21T10:53:28.911Z,8.45
2018-09-21T10:55:57.944Z,6.53
2018-09-21T10:58:26.985Z,4.80
2018-09-21T11:00:56.262Z,6.83
2018-09-21T11:03:25.243Z,6.08
2018-09-21T11:05:54.327Z,5.45
2018-09-21T11:08:23.356Z,4.92
2018-09-21T11:10:53.180Z,10.15
2018-09-21T11:13:23.699Z,6.20
2018-09-21T11:15:55.022Z,4.45
2018-09-21T11:18:29.399Z,4.67
2018-09-21T11:20:58.402Z,5.60
2018-09-21T11:23:27.388Z,7.40
2018-09-21T11:25:56.403Z,5.70
2018-09-21T11:28:25.443Z,5.08
2018-09-21T11:30:54.431Z,4.60
2018-09-21T11:33:25.013Z,5.15
2018-09-21T11:35:55.823Z,5.15
2018-09-21T11:38:26.555Z,5.87
2018-09-21T11:40:57.250Z,9.68
2018-09-21T11:43:27.677Z,4.85
2018-09-21T11:45:56.787Z,5.28
2018-09-21T11:48:25.814Z,5.87
2018-09-21T11:50:54.963Z,5.35
2018-09-21T11:53:24.059Z,6.22
2018-09-21T11:55:53.087Z,5.55
2018-09-21T11:58:22.247Z,4.80
2018-09-21T12:00:51.287Z,4.87
2018-09-21T12:03:20.333Z,6.53
2018-09-21T12:05:49.317Z,9.10
2018-09-21T12:08:18.367Z,4.62
2018-09-21T12:10:47.515Z,6.72
2018-09-21T12:13:16.515Z,4.97
2018-09-21T12:15:45.539Z,5.12
2018-09-21T12:18:14.531Z,8.03
2018-09-21T12:20:43.569Z,4.47
2018-09-21T12:23:12.573Z,6.75
2018-09-21T12:25:41.588Z,4.92
2018-09-21T12:28:10.600Z,4.97
2018-09-21T12:30:39.607Z,5.62
2018-09-21T12:33:08.607Z,4.25
2018-09-21T12:35:37.747Z,4.78
2018-09-21T12:38:07.326Z,5.08
2018-09-21T12:40:36.799Z,4.90
2018-09-21T12:43:06.051Z,5.08
2018-09-21T12:45:35.147Z,6.85
2018-09-21T12:48:05.297Z,9.15
2018-09-21T12:50:34.408Z,6.72
2018-09-21T12:53:03.883Z,3.98
2018-09-21T12:55:32.915Z,5.25
2018-09-21T12:58:02.352Z,5.30
2018-09-21T13:00:36.789Z,6.25
2018-09-21T13:03:05.807Z,5.08
2018-09-21T13:05:34.791Z,6.20
2018-09-21T13:08:03.963Z,10.03
2018-09-21T13:10:32.925Z,5.72
2018-09-21T13:13:02.045Z,4.80
2018-09-21T13:15:31.005Z,3.98
2018-09-21T13:18:00.350Z,4.53
2018-09-21T13:20:29.343Z,3.60
2018-09-21T13:22:58.370Z,7.28
2018-09-21T13:25:27.331Z,5.47
2018-09-21T13:27:56.580Z,4.40
2018-09-21T13:30:25.774Z,5.45
2018-09-21T13:32:54.764Z,4.65
2018-09-21T13:35:23.758Z,5.05
2018-09-21T13:37:52.785Z,4.20
2018-09-21T13:40:21.819Z,4.50
2018-09-21T13:42:51.088Z,4.45
2018-09-21T13:45:20.466Z,4.12
2018-09-21T13:47:49.631Z,5.37
2018-09-21T13:50:18.665Z,3.67
2018-09-21T13:52:47.675Z,3.75
2018-09-21T13:55:16.775Z,3.50
2018-09-21T13:57:45.740Z,5.17
2018-09-21T14:00:14.783Z,4.45
2018-09-21T14:02:43.857Z,6.75
2018-09-21T14:05:13.109Z,4.95
2018-09-21T14:07:42.528Z,5.85
2018-09-21T14:10:11.899Z,5.30
2018-09-21T14:12:41.641Z,6.10
2018-09-21T14:15:10.667Z,3.37
2018-09-21T14:17:39.763Z,3.90
2018-09-21T14:20:08.741Z,3.45
2018-09-21T14:22:37.815Z,5.28
2018-09-21T14:25:06.985Z,3.67
2018-09-21T14:27:36.019Z,5.72
2018-09-21T14:30:05.330Z,4.22
2018-09-21T14:32:34.401Z,5.20
2018-09-21T14:35:03.415Z,6.90
2018-09-21T14:37:32.438Z,5.42
2018-09-21T14:40:01.931Z,4.90
2018-09-21T14:42:31.210Z,5.92
2018-09-21T14:45:00.579Z,5.25
2018-09-21T14:47:29.719Z,7.28
2018-09-21T14:49:59.514Z,6.42
2018-09-21T14:52:28.758Z,4.70
2018-09-21T14:54:58.032Z,6.25
2018-09-21T14:57:27.118Z,6.47
2018-09-21T14:59:56.126Z,5.78
2018-09-21T15:02:25.322Z,5.60
2018-09-21T15:04:54.477Z,6.85
2018-09-21T15:07:23.526Z,5.87
2018-09-21T15:09:52.760Z,4.28
2018-09-21T15:12:21.889Z,4.42
2018-09-21T15:14:50.932Z,6.47
2018-09-21T15:17:19.950Z,6.28
2018-09-21T15:19:48.967Z,5.75
2018-09-21T15:22:18.083Z,5.65
2018-09-21T15:24:47.336Z,5.10
2018-09-21T15:27:16.606Z,8.55
2018-09-21T15:29:45.842Z,6.37
2018-09-21T15:32:15.035Z,4.87
2018-09-21T15:34:44.980Z,6.78
2018-09-21T15:37:14.453Z,5.92
2018-09-21T15:39:43.512Z,5.10
2018-09-21T15:42:12.615Z,5.10
2018-09-21T15:44:41.729Z,5.40
2018-09-21T15:47:10.842Z,5.90
2018-09-21T15:49:39.924Z,10.55
2018-09-21T15:52:09.125Z,6.78
2018-09-21T15:54:38.215Z,8.13
2018-09-21T15:57:07.289Z,6.95
2018-09-21T15:59:36.376Z,6.42
2018-09-21T16:02:05.413Z,4.80
2018-09-21T16:04:34.628Z,5.15
2018-09-21T16:07:03.655Z,4.37
2018-09-21T16:09:32.858Z,6.60
2018-09-21T16:12:01.899Z,5.83
2018-09-21T16:14:30.939Z,6.10
2018-09-21T16:17:00.105Z,7.35
2018-09-21T16:19:29.282Z,5.83
2018-09-21T16:22:00.012Z,5.00
2018-09-21T16:24:29.012Z,6.05
2018-09-21T16:26:58.032Z,4.72
2018-09-21T16:29:27.002Z,5.78
2018-09-21T16:31:56.022Z,7.53
2018-09-21T16:34:24.993Z,4.58
2018-09-21T16:36:53.462Z,7.40
2018-09-21T16:39:22.538Z,7.80
2018-09-21T16:41:51.699Z,8.98
2018-09-21T16:44:20.712Z,5.50
2018-09-21T16:46:49.717Z,7.30
2018-09-21T16:49:18.791Z,6.58
2018-09-21T16:51:47.911Z,5.67
2018-09-21T16:54:16.673Z,6.27
2018-09-21T16:56:45.687Z,5.08
2018-09-21T16:59:14.775Z,4.47
2018-09-21T17:01:44.086Z,4.72
2018-09-21T17:04:13.210Z,4.67
2018-09-21T17:06:42.383Z,7.22
2018-09-21T17:09:12.483Z,6.80
2018-09-21T17:11:41.483Z,6.25
2018-09-21T17:14:10.501Z,9.38
2018-09-21T17:16:39.533Z,6.40
2018-09-21T17:19:08.544Z,8.73
2018-09-21T17:21:37.658Z,7.10
2018-09-21T17:24:06.655Z,5.20
2018-09-21T17:26:35.664Z,6.92
2018-09-21T17:29:04.706Z,5.45
2018-09-21T17:31:33.749Z,6.65
2018-09-21T17:34:02.938Z,5.70
2018-09-21T17:36:32.001Z,6.35
2018-09-21T17:39:01.367Z,7.65
2018-09-21T17:41:29.852Z,5.90
2018-09-21T17:43:58.283Z,9.20
2018-09-21T17:46:27.299Z,4.78
2018-09-21T17:48:55.745Z,5.83
2018-09-21T17:51:24.224Z,4.17
2018-09-21T17:53:52.645Z,6.77
2018-09-21T17:56:21.327Z,6.07
2018-09-21T17:58:50.461Z,5.47
2018-09-21T18:01:18.887Z,7.97
2018-09-21T18:03:47.455Z,5.37
2018-09-21T18:06:15.884Z,4.83
2018-09-21T18:08:45.133Z,3.83
2018-09-21T18:11:13.544Z,4.20
2018-09-21T18:13:41.988Z,6.63
2018-09-21T18:16:10.557Z,4.60
2018-09-21T18:18:39.180Z,4.37
2018-09-21T18:21:07.938Z,6.30
2018-09-21T18:23:36.670Z,4.40
2018-09-21T18:26:05.353Z,7.23
2018-09-21T18:28:33.920Z,4.53
2018-09-21T18:31:02.613Z,4.27
2018-09-21T18:33:31.073Z,6.57
2018-09-21T18:35:59.605Z,6.43
2018-09-21T18:38:28.083Z,3.73
2018-09-21T18:40:56.698Z,5.83
2018-09-21T18:43:25.344Z,4.73
2018-09-21T18:45:53.860Z,5.60
2018-09-21T18:48:22.874Z,3.90
2018-09-21T18:50:53.000Z,5.03
2018-09-21T18:53:22.442Z,4.90
2018-09-21T18:55:51.695Z,5.23
2018-09-21T18:58:20.196Z,5.40
2018-09-21T19:00:48.663Z,7.93
2018-09-21T19:03:17.152Z,13.13
2018-09-21T19:05:45.733Z,7.83
2018-09-21T19:08:14.188Z,2.30
2018-09-21T19:10:42.679Z,2.80
2018-09-21T19:13:11.155Z,3.53
2018-09-21T19:15:39.707Z,3.10
2018-09-21T19:18:08.264Z,3.13
2018-09-21T19:20:36.685Z,3.00
2018-09-21T19:23:05.365Z,2.07
2018-09-21T19:25:33.884Z,1.50
2018-09-21T19:28:02.404Z,0.70
2018-09-21T19:30:30.864Z,1.43
2018-09-21T19:32:59.376Z,1.43
2018-09-21T19:35:27.954Z,2.27
2018-09-21T19:37:56.400Z,3.93
2018-09-21T19:40:24.872Z,3.93
2018-09-21T19:42:53.459Z,1.57
2018-09-21T19:45:22.131Z,1.90
2018-09-21T19:47:50.644Z,2.33
2018-09-21T19:50:19.337Z,1.70
2018-09-21T19:52:47.821Z,2.00
2018-09-21T19:55:16.332Z,4.40
2018-09-21T19:57:44.775Z,2.40
2018-09-21T20:00:13.186Z,1.10
2018-09-21T20:02:41.623Z,1.77
2018-09-21T20:05:10.050Z,1.03
2018-09-21T20:07:38.578Z,1.60
2018-09-21T20:10:07.069Z,3.80
2018-09-21T20:12:35.573Z,1.27
2018-09-21T20:15:04.044Z,4.00
2018-09-21T20:17:32.856Z,2.17
2018-09-21T20:20:01.353Z,3.13
2018-09-21T20:22:29.833Z,2.50
2018-09-21T20:24:58.275Z,2.50
2018-09-21T20:27:26.878Z,2.70
2018-09-21T20:30:00.702Z,3.20
2018-09-21T20:32:34.444Z,4.07
2018-09-21T20:35:02.978Z,5.47
2018-09-21T20:37:31.541Z,4.30
2018-09-21T20:40:00.139Z,6.50
2018-09-21T20:42:28.613Z,3.90
2018-09-21T20:44:57.182Z,3.70
2018-09-21T20:47:25.661Z,3.53
2018-09-21T20:49:54.169Z,5.87
2018-09-21T20:52:23.185Z,3.53
2018-09-21T20:54:52.218Z,2.40
2018-09-21T20:57:20.678Z,5.30
2018-09-21T20:59:49.250Z,5.73
2018-09-21T21:02:17.848Z,3.37
2018-09-21T21:04:46.388Z,3.60
2018-09-21T21:07:14.822Z,3.20
2018-09-21T21:09:43.351Z,5.47
2018-09-21T21:12:11.879Z,2.67
2018-09-21T21:14:40.432Z,4.70
2018-09-21T21:17:09.097Z,4.33
2018-09-21T21:19:37.875Z,5.93
2018-09-21T21:22:06.441Z,3.60
2018-09-21T21:24:34.989Z,2.97
2018-09-21T21:27:03.775Z,5.80
2018-09-21T21:29:32.240Z,4.27
2018-09-21T21:32:00.905Z,5.03
2018-09-21T21:34:29.404Z,7.07
2018-09-21T21:36:58.551Z,4.80
2018-09-21T21:39:27.353Z,5.70
2018-09-21T21:41:56.223Z,4.73
2018-09-21T21:44:24.943Z,4.00
2018-09-21T21:46:53.547Z,6.70
2018-09-21T21:49:22.151Z,3.03
2018-09-21T21:51:50.799Z,4.87
2018-09-21T21:54:19.537Z,4.50
2018-09-21T21:56:48.314Z,6.10
2018-09-21T21:59:16.967Z,4.77
2018-09-21T22:01:46.884Z,8.03
2018-09-21T22:04:16.672Z,5.80
2018-09-21T22:06:45.146Z,5.33
2018-09-21T22:09:14.112Z,6.08
2018-09-21T22:11:48.067Z,3.57
2018-09-21T22:14:16.836Z,5.77
2018-09-21T22:16:45.641Z,5.17
2018-09-21T22:19:14.522Z,5.33
2018-09-21T22:21:43.090Z,7.90
2018-09-21T22:24:12.148Z,4.53
2018-09-21T22:26:40.899Z,4.40
2018-09-21T22:29:09.526Z,3.60
2018-09-21T22:31:38.390Z,5.23
2018-09-21T22:34:07.154Z,5.33
2018-09-21T22:36:35.849Z,5.67
2018-09-21T22:39:06.284Z,7.97
2018-09-21T22:41:34.887Z,4.90
2018-09-21T22:44:03.531Z,3.07
2018-09-21T22:46:32.078Z,3.20
2018-09-21T22:49:03.015Z,3.47
2018-09-21T22:51:31.988Z,7.17
2018-09-21T22:54:00.514Z,2.87
2018-09-21T22:56:29.002Z,3.40
2018-09-21T22:58:58.179Z,3.10
2018-09-21T23:01:26.953Z,2.50
2018-09-21T23:03:55.427Z,3.70
2018-09-21T23:06:24.283Z,6.47
2018-09-21T23:08:53.203Z,8.20
2018-09-21T23:11:21.918Z,3.97
2018-09-21T23:13:51.205Z,3.40
2018-09-21T23:16:19.967Z,3.57
2018-09-21T23:18:48.418Z,9.10
2018-09-21T23:21:17.037Z,5.07
2018-09-21T23:23:45.491Z,6.03
2018-09-21T23:26:14.301Z,7.80
2018-09-21T23:28:42.936Z,4.57
2018-09-21T23:31:11.522Z,3.00
2018-09-21T23:33:39.968Z,4.30
2018-09-21T23:36:08.566Z,3.57
2018-09-21T23:38:37.271Z,5.53
2018-09-21T23:41:06.219Z,4.37
2018-09-21T23:43:34.912Z,5.77
2018-09-21T23:46:03.420Z,3.00
2018-09-21T23:48:32.163Z,3.57
2018-09-21T23:51:00.739Z,3.97
2018-09-21T23:53:29.168Z,3.93
2018-09-21T23:55:58.342Z,5.87
2018-09-21T23:58:27.023Z,6.30
